sensor_id;sensor_type;location;lat;lon;timestamp;temperature;humidity
2463;DHT22;1243;54.298;10.172;2023-04-22T00:00:36;8.00;1.00
2463;DHT22;1243;54.298;10.172;2023-04-22T00:03:03;8.00;1.00
2463;DHT22;1243;54.298;10.172;2023-04-22T00:05:29;8.00;1.00
2463;DHT22;1243;54.298;10.172;2023-04-22T00:07:54;8.10;1.00
2463;DHT22;1243;54.298;10.172;2023-04-22T00:10:20;8.10;1.00
2463;DHT22;1243;54.298;10.172;2023-04-22T00:12:46;8.00;1.00
2463;DHT22;1243;54.298;10.172;2023-04-22T00:15:11;8.00;1.00
2463;DHT22;1243;54.298;10.172;2023-04-22T00:17:37;8.00;1.00
2463;DHT22;1243;54.298;10.172;2023-04-22T00:20:03;8.00;1.00
2463;DHT22;1243;54.298;10.172;2023-04-22T00:22:29;8.10;1.00
2463;DHT22;1243;54.298;10.172;2023-04-22T00:24:54;8.10;1.00
2463;DHT22;1243;54.298;10.172;2023-04-22T00:27:20;8.10;1.00
2463;DHT22;1243;54.298;10.172;2023-04-22T00:29:46;8.20;1.00
2463;DHT22;1243;54.298;10.172;2023-04-22T00:32:12;8.20;1.00
2463;DHT22;1243;54.298;10.172;2023-04-22T00:34:38;8.20;1.00
2463;DHT22;1243;54.298;10.172;2023-04-22T00:37:04;8.30;1.00
2463;DHT22;1243;54.298;10.172;2023-04-22T00:39:30;8.30;1.00
2463;DHT22;1243;54.298;10.172;2023-04-22T00:41:56;8.30;1.00
2463;DHT22;1243;54.298;10.172;2023-04-22T00:44:22;8.40;1.00
2463;DHT22;1243;54.298;10.172;2023-04-22T00:46:50;8.40;1.00
2463;DHT22;1243;54.298;10.172;2023-04-22T00:49:16;8.40;1.00
2463;DHT22;1243;54.298;10.172;2023-04-22T00:51:42;8.40;1.00
2463;DHT22;1243;54.298;10.172;2023-04-22T00:54:08;8.50;1.00
2463;DHT22;1243;54.298;10.172;2023-04-22T00:56:34;8.50;1.00
2463;DHT22;1243;54.298;10.172;2023-04-22T00:59:02;8.50;1.00
2463;DHT22;1243;54.298;10.172;2023-04-22T01:01:29;8.50;1.00
2463;DHT22;1243;54.298;10.172;2023-04-22T01:03:55;8.50;1.00
2463;DHT22;1243;54.298;10.172;2023-04-22T01:06:23;8.50;1.00
2463;DHT22;1243;54.298;10.172;2023-04-22T01:08:48;8.50;1.00
2463;DHT22;1243;54.298;10.172;2023-04-22T01:11:14;8.50;1.00
2463;DHT22;1243;54.298;10.172;2023-04-22T01:13:40;8.50;1.00
2463;DHT22;1243;54.298;10.172;2023-04-22T01:16:07;8.50;1.00
2463;DHT22;1243;54.298;10.172;2023-04-22T01:18:35;8.50;1.00
2463;DHT22;1243;54.298;10.172;2023-04-22T01:21:01;8.50;1.00
2463;DHT22;1243;54.298;10.172;2023-04-22T01:23:27;8.50;1.00
2463;DHT22;1243;54.298;10.172;2023-04-22T01:25:53;8.50;1.00
2463;DHT22;1243;54.298;10.172;2023-04-22T01:28:19;8.50;1.00
2463;DHT22;1243;54.298;10.172;2023-04-22T01:30:45;8.50;1.00
2463;DHT22;1243;54.298;10.172;2023-04-22T01:33:14;8.50;1.00
2463;DHT22;1243;54.298;10.172;2023-04-22T01:35:40;8.50;1.00
2463;DHT22;1243;54.298;10.172;2023-04-22T01:38:07;8.50;1.00
2463;DHT22;1243;54.298;10.172;2023-04-22T01:40:34;8.50;1.00
2463;DHT22;1243;54.298;10.172;2023-04-22T01:43:00;8.50;1.00
2463;DHT22;1243;54.298;10.172;2023-04-22T01:45:26;8.50;1.00
2463;DHT22;1243;54.298;10.172;2023-04-22T01:47:52;8.50;1.00
2463;DHT22;1243;54.298;10.172;2023-04-22T01:50:18;8.60;1.00
2463;DHT22;1243;54.298;10.172;2023-04-22T01:52:44;8.50;1.00
2463;DHT22;1243;54.298;10.172;2023-04-22T01:55:10;8.40;1.00
2463;DHT22;1243;54.298;10.172;2023-04-22T01:57:35;8.40;1.00
2463;DHT22;1243;54.298;10.172;2023-04-22T02:00:01;8.30;1.00
2463;DHT22;1243;54.298;10.172;2023-04-22T02:02:27;8.30;1.00
2463;DHT22;1243;54.298;10.172;2023-04-22T02:04:53;8.20;1.00
2463;DHT22;1243;54.298;10.172;2023-04-22T02:07:18;8.20;1.00
2463;DHT22;1243;54.298;10.172;2023-04-22T02:09:44;8.20;1.00
2463;DHT22;1243;54.298;10.172;2023-04-22T02:12:10;8.10;1.00
2463;DHT22;1243;54.298;10.172;2023-04-22T02:14:36;8.10;1.00
2463;DHT22;1243;54.298;10.172;2023-04-22T02:17:01;8.10;1.00
2463;DHT22;1243;54.298;10.172;2023-04-22T02:19:28;8.00;1.00
2463;DHT22;1243;54.298;10.172;2023-04-22T02:21:54;8.00;1.00
2463;DHT22;1243;54.298;10.172;2023-04-22T02:24:20;8.00;1.00
2463;DHT22;1243;54.298;10.172;2023-04-22T02:26:45;7.90;1.00
2463;DHT22;1243;54.298;10.172;2023-04-22T02:29:12;7.90;1.00
2463;DHT22;1243;54.298;10.172;2023-04-22T02:31:38;7.90;1.00
2463;DHT22;1243;54.298;10.172;2023-04-22T02:34:04;7.90;1.00
2463;DHT22;1243;54.298;10.172;2023-04-22T02:36:30;7.80;1.00
2463;DHT22;1243;54.298;10.172;2023-04-22T02:38:57;7.80;1.00
2463;DHT22;1243;54.298;10.172;2023-04-22T02:41:22;7.80;1.00
2463;DHT22;1243;54.298;10.172;2023-04-22T02:43:48;7.80;1.00
2463;DHT22;1243;54.298;10.172;2023-04-22T02:46:14;7.80;1.00
2463;DHT22;1243;54.298;10.172;2023-04-22T02:48:43;7.80;1.00
2463;DHT22;1243;54.298;10.172;2023-04-22T02:51:09;7.80;1.00
2463;DHT22;1243;54.298;10.172;2023-04-22T02:53:35;7.80;1.00
2463;DHT22;1243;54.298;10.172;2023-04-22T02:56:01;7.80;1.00
2463;DHT22;1243;54.298;10.172;2023-04-22T02:58:27;7.70;1.00
2463;DHT22;1243;54.298;10.172;2023-04-22T03:00:53;7.70;1.00
2463;DHT22;1243;54.298;10.172;2023-04-22T03:03:21;7.70;1.00
2463;DHT22;1243;54.298;10.172;2023-04-22T03:05:47;7.70;1.00
2463;DHT22;1243;54.298;10.172;2023-04-22T03:08:12;7.70;1.00
2463;DHT22;1243;54.298;10.172;2023-04-22T03:10:38;7.70;1.00
2463;DHT22;1243;54.298;10.172;2023-04-22T03:13:04;7.70;1.00
2463;DHT22;1243;54.298;10.172;2023-04-22T03:15:29;7.70;1.00
2463;DHT22;1243;54.298;10.172;2023-04-22T03:17:57;7.70;1.00
2463;DHT22;1243;54.298;10.172;2023-04-22T03:20:23;7.70;1.00
2463;DHT22;1243;54.298;10.172;2023-04-22T03:22:49;7.70;1.00
2463;DHT22;1243;54.298;10.172;2023-04-22T03:25:14;7.70;1.00
2463;DHT22;1243;54.298;10.172;2023-04-22T03:27:40;7.60;1.00
2463;DHT22;1243;54.298;10.172;2023-04-22T03:30:06;7.60;1.00
2463;DHT22;1243;54.298;10.172;2023-04-22T03:32:32;7.70;1.00
2463;DHT22;1243;54.298;10.172;2023-04-22T03:34:58;7.70;1.00
2463;DHT22;1243;54.298;10.172;2023-04-22T03:37:23;7.70;1.00
2463;DHT22;1243;54.298;10.172;2023-04-22T03:39:49;7.70;1.00
2463;DHT22;1243;54.298;10.172;2023-04-22T03:42:15;7.70;1.00
2463;DHT22;1243;54.298;10.172;2023-04-22T03:44:40;7.70;1.00
2463;DHT22;1243;54.298;10.172;2023-04-22T03:47:06;7.70;1.00
2463;DHT22;1243;54.298;10.172;2023-04-22T03:49:32;7.80;1.00
2463;DHT22;1243;54.298;10.172;2023-04-22T03:51:57;7.70;1.00
2463;DHT22;1243;54.298;10.172;2023-04-22T03:54:24;7.80;1.00
2463;DHT22;1243;54.298;10.172;2023-04-22T03:56:49;7.80;1.00
2463;DHT22;1243;54.298;10.172;2023-04-22T03:59:17;7.90;1.00
2463;DHT22;1243;54.298;10.172;2023-04-22T04:01:44;7.90;1.00
2463;DHT22;1243;54.298;10.172;2023-04-22T04:04:10;8.00;1.00
2463;DHT22;1243;54.298;10.172;2023-04-22T04:06:36;8.00;1.00
2463;DHT22;1243;54.298;10.172;2023-04-22T04:09:01;8.00;1.00
2463;DHT22;1243;54.298;10.172;2023-04-22T04:11:28;8.20;1.00
2463;DHT22;1243;54.298;10.172;2023-04-22T04:13:54;8.20;1.00
2463;DHT22;1243;54.298;10.172;2023-04-22T04:16:19;8.30;1.00
2463;DHT22;1243;54.298;10.172;2023-04-22T04:18:48;8.30;1.00
2463;DHT22;1243;54.298;10.172;2023-04-22T04:21:13;8.30;1.00
2463;DHT22;1243;54.298;10.172;2023-04-22T04:23:39;8.40;1.00
2463;DHT22;1243;54.298;10.172;2023-04-22T04:26:05;8.40;1.00
2463;DHT22;1243;54.298;10.172;2023-04-22T04:28:30;8.40;1.00
2463;DHT22;1243;54.298;10.172;2023-04-22T04:30:58;8.50;1.00
2463;DHT22;1243;54.298;10.172;2023-04-22T04:33:24;8.50;1.00
2463;DHT22;1243;54.298;10.172;2023-04-22T04:35:50;8.50;1.00
2463;DHT22;1243;54.298;10.172;2023-04-22T04:38:17;8.50;1.00
2463;DHT22;1243;54.298;10.172;2023-04-22T04:40:42;8.60;1.00
2463;DHT22;1243;54.298;10.172;2023-04-22T04:43:10;8.70;1.00
2463;DHT22;1243;54.298;10.172;2023-04-22T04:45:37;8.70;1.00
2463;DHT22;1243;54.298;10.172;2023-04-22T04:48:04;8.80;1.00
2463;DHT22;1243;54.298;10.172;2023-04-22T04:50:31;8.80;1.00
2463;DHT22;1243;54.298;10.172;2023-04-22T04:52:57;8.80;1.00
2463;DHT22;1243;54.298;10.172;2023-04-22T04:55:23;8.90;1.00
2463;DHT22;1243;54.298;10.172;2023-04-22T04:57:49;9.00;1.00
2463;DHT22;1243;54.298;10.172;2023-04-22T05:00:15;9.00;1.00
2463;DHT22;1243;54.298;10.172;2023-04-22T05:02:41;9.10;1.00
2463;DHT22;1243;54.298;10.172;2023-04-22T05:05:07;9.10;1.00
2463;DHT22;1243;54.298;10.172;2023-04-22T05:07:33;9.20;1.00
2463;DHT22;1243;54.298;10.172;2023-04-22T05:09:59;9.20;1.00
2463;DHT22;1243;54.298;10.172;2023-04-22T05:12:25;9.30;1.00
2463;DHT22;1243;54.298;10.172;2023-04-22T05:14:50;9.30;1.00
2463;DHT22;1243;54.298;10.172;2023-04-22T05:17:16;9.40;1.00
2463;DHT22;1243;54.298;10.172;2023-04-22T05:19:42;9.50;1.00
2463;DHT22;1243;54.298;10.172;2023-04-22T05:22:07;9.60;1.00
2463;DHT22;1243;54.298;10.172;2023-04-22T05:24:33;9.70;1.00
2463;DHT22;1243;54.298;10.172;2023-04-22T05:26:59;9.80;1.00
2463;DHT22;1243;54.298;10.172;2023-04-22T05:29:26;9.80;1.00
2463;DHT22;1243;54.298;10.172;2023-04-22T05:31:51;9.90;1.00
2463;DHT22;1243;54.298;10.172;2023-04-22T05:34:17;10.00;1.00
2463;DHT22;1243;54.298;10.172;2023-04-22T05:36:43;10.20;1.00
2463;DHT22;1243;54.298;10.172;2023-04-22T05:39:08;10.30;1.00
2463;DHT22;1243;54.298;10.172;2023-04-22T05:41:34;10.30;1.00
2463;DHT22;1243;54.298;10.172;2023-04-22T05:44:00;10.30;1.00
2463;DHT22;1243;54.298;10.172;2023-04-22T05:46:26;10.50;1.00
2463;DHT22;1243;54.298;10.172;2023-04-22T05:48:51;10.50;1.00
2463;DHT22;1243;54.298;10.172;2023-04-22T05:51:19;10.50;1.00
2463;DHT22;1243;54.298;10.172;2023-04-22T05:53:44;10.60;1.00
2463;DHT22;1243;54.298;10.172;2023-04-22T05:56:10;10.70;1.00
2463;DHT22;1243;54.298;10.172;2023-04-22T05:58:36;10.70;1.00
2463;DHT22;1243;54.298;10.172;2023-04-22T06:01:02;10.90;1.00
2463;DHT22;1243;54.298;10.172;2023-04-22T06:03:28;11.10;1.00
2463;DHT22;1243;54.298;10.172;2023-04-22T06:05:54;11.10;1.00
2463;DHT22;1243;54.298;10.172;2023-04-22T06:08:20;11.20;1.00
2463;DHT22;1243;54.298;10.172;2023-04-22T06:10:45;11.30;1.00
2463;DHT22;1243;54.298;10.172;2023-04-22T06:13:11;11.30;1.00
2463;DHT22;1243;54.298;10.172;2023-04-22T06:15:37;11.40;1.00
2463;DHT22;1243;54.298;10.172;2023-04-22T06:18:02;11.50;1.00
2463;DHT22;1243;54.298;10.172;2023-04-22T06:20:28;11.50;1.00
2463;DHT22;1243;54.298;10.172;2023-04-22T06:22:57;11.60;1.00
2463;DHT22;1243;54.298;10.172;2023-04-22T06:25:23;11.70;1.00
2463;DHT22;1243;54.298;10.172;2023-04-22T06:27:49;11.90;1.00
2463;DHT22;1243;54.298;10.172;2023-04-22T06:30:14;12.00;1.00
2463;DHT22;1243;54.298;10.172;2023-04-22T06:32:40;12.00;1.00
2463;DHT22;1243;54.298;10.172;2023-04-22T06:35:06;12.00;1.00
2463;DHT22;1243;54.298;10.172;2023-04-22T06:37:32;12.10;1.00
2463;DHT22;1243;54.298;10.172;2023-04-22T06:39:58;12.10;1.00
2463;DHT22;1243;54.298;10.172;2023-04-22T06:42:24;12.20;1.00
2463;DHT22;1243;54.298;10.172;2023-04-22T06:44:49;12.30;1.00
2463;DHT22;1243;54.298;10.172;2023-04-22T06:47:15;12.30;1.00
2463;DHT22;1243;54.298;10.172;2023-04-22T06:49:41;12.40;1.00
2463;DHT22;1243;54.298;10.172;2023-04-22T06:52:09;12.60;1.00
2463;DHT22;1243;54.298;10.172;2023-04-22T06:54:35;12.60;1.00
2463;DHT22;1243;54.298;10.172;2023-04-22T06:57:00;12.70;1.00
2463;DHT22;1243;54.298;10.172;2023-04-22T06:59:26;12.70;1.00
2463;DHT22;1243;54.298;10.172;2023-04-22T07:01:52;12.80;1.00
2463;DHT22;1243;54.298;10.172;2023-04-22T07:04:17;12.90;1.00
2463;DHT22;1243;54.298;10.172;2023-04-22T07:06:43;13.00;1.00
2463;DHT22;1243;54.298;10.172;2023-04-22T07:09:09;13.00;1.00
2463;DHT22;1243;54.298;10.172;2023-04-22T07:11:35;13.10;1.00
2463;DHT22;1243;54.298;10.172;2023-04-22T07:14:00;13.20;1.00
2463;DHT22;1243;54.298;10.172;2023-04-22T07:16:26;13.30;1.00
2463;DHT22;1243;54.298;10.172;2023-04-22T07:18:53;13.40;1.00
2463;DHT22;1243;54.298;10.172;2023-04-22T07:21:18;13.50;1.00
2463;DHT22;1243;54.298;10.172;2023-04-22T07:23:44;13.50;1.00
2463;DHT22;1243;54.298;10.172;2023-04-22T07:26:10;13.60;1.00
2463;DHT22;1243;54.298;10.172;2023-04-22T07:28:36;13.60;1.00
2463;DHT22;1243;54.298;10.172;2023-04-22T07:31:02;13.80;1.00
2463;DHT22;1243;54.298;10.172;2023-04-22T07:33:27;13.90;1.00
2463;DHT22;1243;54.298;10.172;2023-04-22T07:35:53;14.00;1.00
2463;DHT22;1243;54.298;10.172;2023-04-22T07:38:19;14.00;1.00
2463;DHT22;1243;54.298;10.172;2023-04-22T07:40:45;14.20;1.00
2463;DHT22;1243;54.298;10.172;2023-04-22T07:43:11;14.30;1.00
2463;DHT22;1243;54.298;10.172;2023-04-22T07:45:36;14.40;1.00
2463;DHT22;1243;54.298;10.172;2023-04-22T07:48:03;14.40;1.00
2463;DHT22;1243;54.298;10.172;2023-04-22T07:50:28;14.50;1.00
2463;DHT22;1243;54.298;10.172;2023-04-22T07:52:54;14.60;1.00
2463;DHT22;1243;54.298;10.172;2023-04-22T07:55:20;14.60;1.00
2463;DHT22;1243;54.298;10.172;2023-04-22T07:57:46;14.70;1.00
2463;DHT22;1243;54.298;10.172;2023-04-22T08:00:13;14.70;1.00
2463;DHT22;1243;54.298;10.172;2023-04-22T08:02:39;14.80;1.00
2463;DHT22;1243;54.298;10.172;2023-04-22T08:05:05;14.90;1.00
2463;DHT22;1243;54.298;10.172;2023-04-22T08:07:31;14.90;1.00
2463;DHT22;1243;54.298;10.172;2023-04-22T08:09:57;15.00;1.00
2463;DHT22;1243;54.298;10.172;2023-04-22T08:12:23;15.10;1.00
2463;DHT22;1243;54.298;10.172;2023-04-22T08:14:48;15.10;1.00
2463;DHT22;1243;54.298;10.172;2023-04-22T08:17:14;15.20;1.00
2463;DHT22;1243;54.298;10.172;2023-04-22T08:19:40;15.30;1.00
2463;DHT22;1243;54.298;10.172;2023-04-22T08:22:05;15.30;1.00
2463;DHT22;1243;54.298;10.172;2023-04-22T08:24:31;15.30;1.00
2463;DHT22;1243;54.298;10.172;2023-04-22T08:26:57;15.40;1.00
2463;DHT22;1243;54.298;10.172;2023-04-22T08:29:23;15.50;1.00
2463;DHT22;1243;54.298;10.172;2023-04-22T08:31:49;15.50;1.00
2463;DHT22;1243;54.298;10.172;2023-04-22T08:34:15;15.70;1.00
2463;DHT22;1243;54.298;10.172;2023-04-22T08:36:41;15.90;1.00
2463;DHT22;1243;54.298;10.172;2023-04-22T08:39:07;16.00;1.00
2463;DHT22;1243;54.298;10.172;2023-04-22T08:41:33;16.10;1.00
2463;DHT22;1243;54.298;10.172;2023-04-22T08:44:00;16.20;1.00
2463;DHT22;1243;54.298;10.172;2023-04-22T08:46:28;16.40;1.00
2463;DHT22;1243;54.298;10.172;2023-04-22T08:48:56;16.60;1.00
2463;DHT22;1243;54.298;10.172;2023-04-22T08:51:27;16.70;1.00
2463;DHT22;1243;54.298;10.172;2023-04-22T08:53:53;16.90;1.00
2463;DHT22;1243;54.298;10.172;2023-04-22T08:56:19;17.00;1.00
2463;DHT22;1243;54.298;10.172;2023-04-22T08:58:46;17.20;1.00
2463;DHT22;1243;54.298;10.172;2023-04-22T09:01:13;17.40;1.00
2463;DHT22;1243;54.298;10.172;2023-04-22T09:03:40;17.60;1.00
2463;DHT22;1243;54.298;10.172;2023-04-22T09:06:07;17.70;1.00
2463;DHT22;1243;54.298;10.172;2023-04-22T09:08:34;17.90;1.00
2463;DHT22;1243;54.298;10.172;2023-04-22T09:11:01;18.10;1.00
2463;DHT22;1243;54.298;10.172;2023-04-22T09:13:27;18.30;1.00
2463;DHT22;1243;54.298;10.172;2023-04-22T09:15:53;18.60;1.00
2463;DHT22;1243;54.298;10.172;2023-04-22T09:18:19;18.90;1.00
2463;DHT22;1243;54.298;10.172;2023-04-22T09:20:48;19.00;1.00
2463;DHT22;1243;54.298;10.172;2023-04-22T09:23:18;19.20;1.00
2463;DHT22;1243;54.298;10.172;2023-04-22T09:25:44;19.40;1.00
2463;DHT22;1243;54.298;10.172;2023-04-22T09:28:15;19.70;1.00
2463;DHT22;1243;54.298;10.172;2023-04-22T09:30:44;20.00;1.00
2463;DHT22;1243;54.298;10.172;2023-04-22T09:33:10;20.10;1.00
2463;DHT22;1243;54.298;10.172;2023-04-22T09:35:41;20.50;1.00
2463;DHT22;1243;54.298;10.172;2023-04-22T09:38:10;20.80;1.00
2463;DHT22;1243;54.298;10.172;2023-04-22T09:40:40;20.90;1.00
2463;DHT22;1243;54.298;10.172;2023-04-22T09:43:07;21.20;1.00
2463;DHT22;1243;54.298;10.172;2023-04-22T09:45:38;21.40;1.00
2463;DHT22;1243;54.298;10.172;2023-04-22T09:48:16;21.70;1.00
2463;DHT22;1243;54.298;10.172;2023-04-22T09:50:47;21.70;1.00
2463;DHT22;1243;54.298;10.172;2023-04-22T09:53:17;21.40;1.00
2463;DHT22;1243;54.298;10.172;2023-04-22T09:55:46;21.40;1.00
2463;DHT22;1243;54.298;10.172;2023-04-22T09:58:13;21.60;1.00
2463;DHT22;1243;54.298;10.172;2023-04-22T10:00:49;21.80;1.00
2463;DHT22;1243;54.298;10.172;2023-04-22T10:03:15;22.00;1.00
2463;DHT22;1243;54.298;10.172;2023-04-22T10:05:42;22.20;1.00
2463;DHT22;1243;54.298;10.172;2023-04-22T10:08:28;22.60;1.00
2463;DHT22;1243;54.298;10.172;2023-04-22T10:10:55;22.70;1.00
2463;DHT22;1243;54.298;10.172;2023-04-22T10:13:20;23.10;1.00
2463;DHT22;1243;54.298;10.172;2023-04-22T10:15:52;23.40;1.00
2463;DHT22;1243;54.298;10.172;2023-04-22T10:18:26;23.20;1.00
2463;DHT22;1243;54.298;10.172;2023-04-22T10:20:54;23.30;1.00
2463;DHT22;1243;54.298;10.172;2023-04-22T10:23:22;23.40;1.00
2463;DHT22;1243;54.298;10.172;2023-04-22T10:25:55;23.50;1.00
2463;DHT22;1243;54.298;10.172;2023-04-22T10:28:23;23.60;1.00
2463;DHT22;1243;54.298;10.172;2023-04-22T10:30:49;23.40;1.00
2463;DHT22;1243;54.298;10.172;2023-04-22T10:41:29;24.00;1.00
2463;DHT22;1243;54.298;10.172;2023-04-22T10:43:57;24.40;1.00
2463;DHT22;1243;54.298;10.172;2023-04-22T10:49:20;25.00;1.00
2463;DHT22;1243;54.298;10.172;2023-04-22T10:51:48;25.40;1.00
2463;DHT22;1243;54.298;10.172;2023-04-22T10:57:19;25.50;1.00
2463;DHT22;1243;54.298;10.172;2023-04-22T10:59:54;25.80;1.00
2463;DHT22;1243;54.298;10.172;2023-04-22T11:02:39;25.90;1.00
2463;DHT22;1243;54.298;10.172;2023-04-22T11:05:20;26.20;1.00
2463;DHT22;1243;54.298;10.172;2023-04-22T11:07:48;26.10;1.00
2463;DHT22;1243;54.298;10.172;2023-04-22T11:13:00;24.90;1.00
2463;DHT22;1243;54.298;10.172;2023-04-22T11:15:28;25.00;1.00
2463;DHT22;1243;54.298;10.172;2023-04-22T11:17:55;25.40;1.00
2463;DHT22;1243;54.298;10.172;2023-04-22T11:20:21;25.30;1.00
2463;DHT22;1243;54.298;10.172;2023-04-22T11:22:51;25.20;1.00
2463;DHT22;1243;54.298;10.172;2023-04-22T11:25:18;25.10;1.00
2463;DHT22;1243;54.298;10.172;2023-04-22T11:27:45;25.40;1.00
2463;DHT22;1243;54.298;10.172;2023-04-22T11:30:19;26.00;1.00
2463;DHT22;1243;54.298;10.172;2023-04-22T11:32:47;26.10;1.00
2463;DHT22;1243;54.298;10.172;2023-04-22T11:35:20;26.40;1.00
2463;DHT22;1243;54.298;10.172;2023-04-22T11:37:50;26.60;1.00
2463;DHT22;1243;54.298;10.172;2023-04-22T11:40:18;26.70;1.00
2463;DHT22;1243;54.298;10.172;2023-04-22T11:42:49;26.90;1.00
2463;DHT22;1243;54.298;10.172;2023-04-22T11:45:16;26.90;1.00
2463;DHT22;1243;54.298;10.172;2023-04-22T11:47:43;26.90;1.00
2463;DHT22;1243;54.298;10.172;2023-04-22T11:50:11;27.20;1.00
2463;DHT22;1243;54.298;10.172;2023-04-22T11:52:53;27.60;1.00
2463;DHT22;1243;54.298;10.172;2023-04-22T11:55:34;28.00;1.00
2463;DHT22;1243;54.298;10.172;2023-04-22T11:58:11;28.40;1.00
2463;DHT22;1243;54.298;10.172;2023-04-22T12:00:44;28.70;1.00
2463;DHT22;1243;54.298;10.172;2023-04-22T12:03:15;28.60;1.00
2463;DHT22;1243;54.298;10.172;2023-04-22T12:05:50;28.70;1.00
2463;DHT22;1243;54.298;10.172;2023-04-22T12:08:18;28.70;1.00
2463;DHT22;1243;54.298;10.172;2023-04-22T12:10:52;28.50;1.00
2463;DHT22;1243;54.298;10.172;2023-04-22T12:13:21;28.30;1.00
2463;DHT22;1243;54.298;10.172;2023-04-22T12:15:51;28.30;1.00
2463;DHT22;1243;54.298;10.172;2023-04-22T12:18:28;28.10;1.00
2463;DHT22;1243;54.298;10.172;2023-04-22T12:20:58;27.90;1.00
2463;DHT22;1243;54.298;10.172;2023-04-22T12:23:24;27.70;1.00
2463;DHT22;1243;54.298;10.172;2023-04-22T12:25:50;27.50;1.00
2463;DHT22;1243;54.298;10.172;2023-04-22T12:28:15;27.60;1.00
2463;DHT22;1243;54.298;10.172;2023-04-22T12:30:41;27.40;1.00
2463;DHT22;1243;54.298;10.172;2023-04-22T12:33:07;27.30;1.00
2463;DHT22;1243;54.298;10.172;2023-04-22T12:35:33;27.10;1.00
2463;DHT22;1243;54.298;10.172;2023-04-22T12:38:00;26.90;1.00
2463;DHT22;1243;54.298;10.172;2023-04-22T12:40:26;26.70;99.90
2463;DHT22;1243;54.298;10.172;2023-04-22T12:42:51;26.30;99.90
2463;DHT22;1243;54.298;10.172;2023-04-22T12:45:17;26.20;99.90
2463;DHT22;1243;54.298;10.172;2023-04-22T12:47:43;26.00;99.90
2463;DHT22;1243;54.298;10.172;2023-04-22T12:50:11;26.30;1.00
2463;DHT22;1243;54.298;10.172;2023-04-22T12:52:36;26.60;99.90
2463;DHT22;1243;54.298;10.172;2023-04-22T12:55:02;26.60;99.90
2463;DHT22;1243;54.298;10.172;2023-04-22T12:57:29;26.60;1.00
2463;DHT22;1243;54.298;10.172;2023-04-22T12:59:55;27.00;99.90
2463;DHT22;1243;54.298;10.172;2023-04-22T13:02:22;26.90;99.90
2463;DHT22;1243;54.298;10.172;2023-04-22T13:04:47;27.00;99.90
2463;DHT22;1243;54.298;10.172;2023-04-22T13:07:13;27.20;99.90
2463;DHT22;1243;54.298;10.172;2023-04-22T13:09:40;26.80;99.90
2463;DHT22;1243;54.298;10.172;2023-04-22T13:12:06;26.60;99.90
2463;DHT22;1243;54.298;10.172;2023-04-22T13:14:34;26.10;99.90
2463;DHT22;1243;54.298;10.172;2023-04-22T13:17:00;25.80;99.90
2463;DHT22;1243;54.298;10.172;2023-04-22T13:19:25;25.70;99.90
2463;DHT22;1243;54.298;10.172;2023-04-22T13:21:51;25.80;99.90
2463;DHT22;1243;54.298;10.172;2023-04-22T13:24:17;26.10;99.90
2463;DHT22;1243;54.298;10.172;2023-04-22T13:26:43;26.40;99.90
2463;DHT22;1243;54.298;10.172;2023-04-22T13:29:09;26.50;99.90
2463;DHT22;1243;54.298;10.172;2023-04-22T13:31:40;26.50;99.90
2463;DHT22;1243;54.298;10.172;2023-04-22T13:34:06;26.70;99.90
2463;DHT22;1243;54.298;10.172;2023-04-22T13:36:32;26.40;99.90
2463;DHT22;1243;54.298;10.172;2023-04-22T13:38:59;26.30;99.90
2463;DHT22;1243;54.298;10.172;2023-04-22T13:41:25;26.10;99.90
2463;DHT22;1243;54.298;10.172;2023-04-22T13:43:51;26.00;99.90
2463;DHT22;1243;54.298;10.172;2023-04-22T13:46:19;25.90;99.90
2463;DHT22;1243;54.298;10.172;2023-04-22T13:48:45;25.90;99.90
2463;DHT22;1243;54.298;10.172;2023-04-22T13:51:11;26.00;99.90
2463;DHT22;1243;54.298;10.172;2023-04-22T13:53:37;26.30;99.90
2463;DHT22;1243;54.298;10.172;2023-04-22T13:56:03;26.60;99.90
2463;DHT22;1243;54.298;10.172;2023-04-22T13:58:29;26.90;99.90
2463;DHT22;1243;54.298;10.172;2023-04-22T14:00:55;27.20;99.90
2463;DHT22;1243;54.298;10.172;2023-04-22T14:03:21;27.50;1.00
2463;DHT22;1243;54.298;10.172;2023-04-22T14:05:47;27.90;99.90
2463;DHT22;1243;54.298;10.172;2023-04-22T14:08:13;28.20;99.90
2463;DHT22;1243;54.298;10.172;2023-04-22T14:10:39;28.40;99.90
2463;DHT22;1243;54.298;10.172;2023-04-22T14:13:05;28.50;99.90
2463;DHT22;1243;54.298;10.172;2023-04-22T14:15:31;28.30;99.90
2463;DHT22;1243;54.298;10.172;2023-04-22T14:17:57;27.90;99.90
2463;DHT22;1243;54.298;10.172;2023-04-22T14:20:23;27.50;99.90
2463;DHT22;1243;54.298;10.172;2023-04-22T14:23:15;27.40;99.90
2463;DHT22;1243;54.298;10.172;2023-04-22T14:25:43;27.40;99.90
2463;DHT22;1243;54.298;10.172;2023-04-22T14:28:11;27.20;99.90
2463;DHT22;1243;54.298;10.172;2023-04-22T14:30:37;26.90;99.90
2463;DHT22;1243;54.298;10.172;2023-04-22T14:33:03;26.80;99.90
2463;DHT22;1243;54.298;10.172;2023-04-22T14:35:35;26.70;99.90
2463;DHT22;1243;54.298;10.172;2023-04-22T14:38:03;26.50;99.90
2463;DHT22;1243;54.298;10.172;2023-04-22T14:40:29;26.50;99.90
2463;DHT22;1243;54.298;10.172;2023-04-22T14:42:57;26.60;99.90
2463;DHT22;1243;54.298;10.172;2023-04-22T14:45:24;26.70;99.90
2463;DHT22;1243;54.298;10.172;2023-04-22T14:47:50;26.60;99.90
2463;DHT22;1243;54.298;10.172;2023-04-22T14:50:16;26.30;99.90
2463;DHT22;1243;54.298;10.172;2023-04-22T14:52:42;26.10;99.90
2463;DHT22;1243;54.298;10.172;2023-04-22T14:55:08;25.80;99.90
2463;DHT22;1243;54.298;10.172;2023-04-22T14:57:34;25.50;99.90
2463;DHT22;1243;54.298;10.172;2023-04-22T15:00:00;25.40;99.90
2463;DHT22;1243;54.298;10.172;2023-04-22T15:02:25;25.20;99.90
2463;DHT22;1243;54.298;10.172;2023-04-22T15:04:51;25.20;99.90
2463;DHT22;1243;54.298;10.172;2023-04-22T15:07:17;25.10;99.90
2463;DHT22;1243;54.298;10.172;2023-04-22T15:09:45;25.30;99.90
2463;DHT22;1243;54.298;10.172;2023-04-22T15:12:10;25.40;99.90
2463;DHT22;1243;54.298;10.172;2023-04-22T15:14:36;25.40;99.90
2463;DHT22;1243;54.298;10.172;2023-04-22T15:17:03;25.30;99.90
2463;DHT22;1243;54.298;10.172;2023-04-22T15:19:30;25.20;99.90
2463;DHT22;1243;54.298;10.172;2023-04-22T15:21:55;25.10;99.90
2463;DHT22;1243;54.298;10.172;2023-04-22T15:24:21;25.10;99.90
2463;DHT22;1243;54.298;10.172;2023-04-22T15:26:52;25.00;99.90
2463;DHT22;1243;54.298;10.172;2023-04-22T15:29:18;25.00;99.90
2463;DHT22;1243;54.298;10.172;2023-04-22T15:31:44;24.90;99.90
2463;DHT22;1243;54.298;10.172;2023-04-22T15:34:10;24.80;99.90
2463;DHT22;1243;54.298;10.172;2023-04-22T15:36:36;24.70;99.90
2463;DHT22;1243;54.298;10.172;2023-04-22T15:39:03;24.50;99.90
2463;DHT22;1243;54.298;10.172;2023-04-22T15:41:30;24.40;99.90
2463;DHT22;1243;54.298;10.172;2023-04-22T15:43:58;24.30;99.90
2463;DHT22;1243;54.298;10.172;2023-04-22T15:46:23;24.20;99.90
2463;DHT22;1243;54.298;10.172;2023-04-22T15:48:52;24.10;99.90
2463;DHT22;1243;54.298;10.172;2023-04-22T15:51:18;24.00;99.90
2463;DHT22;1243;54.298;10.172;2023-04-22T15:53:44;24.00;99.90
2463;DHT22;1243;54.298;10.172;2023-04-22T15:56:10;24.00;99.90
2463;DHT22;1243;54.298;10.172;2023-04-22T15:58:37;24.00;99.90
2463;DHT22;1243;54.298;10.172;2023-04-22T16:01:03;24.10;99.90
2463;DHT22;1243;54.298;10.172;2023-04-22T16:03:29;24.40;99.90
2463;DHT22;1243;54.298;10.172;2023-04-22T16:05:55;24.50;99.90
2463;DHT22;1243;54.298;10.172;2023-04-22T16:08:21;24.40;99.90
2463;DHT22;1243;54.298;10.172;2023-04-22T16:10:47;24.30;99.90
2463;DHT22;1243;54.298;10.172;2023-04-22T16:13:13;24.20;99.90
2463;DHT22;1243;54.298;10.172;2023-04-22T16:15:39;24.10;99.90
2463;DHT22;1243;54.298;10.172;2023-04-22T16:18:05;24.00;99.90